sensor_id;sensor_type;location;lat;lon;timestamp;pressure;altitude;pressure_sealevel;temperature;humidity
64628;BME280;68467;50.960;0.314;2023-03-14T00:01:12;97246.40;;;5.92;100.00
64628;BME280;68467;50.960;0.314;2023-03-14T00:03:40;97242.93;;;6.10;100.00
64628;BME280;68467;50.960;0.314;2023-03-14T00:06:09;97240.59;;;5.92;100.00
64628;BME280;68467;50.960;0.314;2023-03-14T00:08:38;97224.66;;;5.84;100.00
64628;BME280;68467;50.960;0.314;2023-03-14T00:11:07;97239.68;;;6.02;100.00
64628;BME280;68467;50.960;0.314;2023-03-14T00:13:35;97233.27;;;5.84;100.00
64628;BME280;68467;50.960;0.314;2023-03-14T00:16:03;97222.64;;;5.90;100.00
64628;BME280;68467;50.960;0.314;2023-03-14T00:18:31;97214.34;;;5.73;100.00
64628;BME280;68467;50.960;0.314;2023-03-14T00:20:59;97220.01;;;5.71;100.00
64628;BME280;68467;50.960;0.314;2023-03-14T00:23:27;97219.69;;;5.55;100.00
64628;BME280;68467;50.960;0.314;2023-03-14T00:25:59;97222.10;;;6.15;100.00
64628;BME280;68467;50.960;0.314;2023-03-14T00:28:26;97223.31;;;5.59;100.00
64628;BME280;68467;50.960;0.314;2023-03-14T00:30:55;97215.28;;;5.61;100.00
64628;BME280;68467;50.960;0.314;2023-03-14T00:33:22;97215.99;;;5.73;100.00
64628;BME280;68467;50.960;0.314;2023-03-14T00:35:55;97226.47;;;5.73;100.00
64628;BME280;68467;50.960;0.314;2023-03-14T00:38:22;97219.41;;;5.85;100.00
64628;BME280;68467;50.960;0.314;2023-03-14T00:40:51;97229.15;;;6.12;100.00
64628;BME280;68467;50.960;0.314;2023-03-14T00:43:19;97219.12;;;5.56;100.00
64628;BME280;68467;50.960;0.314;2023-03-14T00:45:47;97220.50;;;5.64;100.00
64628;BME280;68467;50.960;0.314;2023-03-14T00:48:15;97216.95;;;5.69;100.00
64628;BME280;68467;50.960;0.314;2023-03-14T00:50:43;97220.40;;;5.72;100.00
64628;BME280;68467;50.960;0.314;2023-03-14T00:53:10;97223.57;;;6.35;100.00
64628;BME280;68467;50.960;0.314;2023-03-14T00:55:38;97225.05;;;5.78;100.00
64628;BME280;68467;50.960;0.314;2023-03-14T00:58:06;97223.81;;;6.22;100.00
64628;BME280;68467;50.960;0.314;2023-03-14T01:00:35;97221.82;;;5.86;100.00
64628;BME280;68467;50.960;0.314;2023-03-14T01:03:02;97222.50;;;6.00;100.00
64628;BME280;68467;50.960;0.314;2023-03-14T01:05:30;97223.42;;;5.78;100.00
64628;BME280;68467;50.960;0.314;2023-03-14T01:07:58;97221.53;;;6.15;100.00
64628;BME280;68467;50.960;0.314;2023-03-14T01:10:26;97217.31;;;5.97;100.00
64628;BME280;68467;50.960;0.314;2023-03-14T01:12:54;97226.76;;;5.87;100.00
64628;BME280;68467;50.960;0.314;2023-03-14T01:15:22;97217.10;;;6.30;100.00
64628;BME280;68467;50.960;0.314;2023-03-14T01:17:50;97213.61;;;6.50;100.00
64628;BME280;68467;50.960;0.314;2023-03-14T01:20:18;97216.51;;;6.30;100.00
64628;BME280;68467;50.960;0.314;2023-03-14T01:22:45;97216.28;;;6.12;100.00
64628;BME280;68467;50.960;0.314;2023-03-14T01:25:15;97210.45;;;6.11;100.00
64628;BME280;68467;50.960;0.314;2023-03-14T01:27:42;97220.06;;;5.73;100.00
64628;BME280;68467;50.960;0.314;2023-03-14T01:30:11;97227.27;;;5.75;100.00
64628;BME280;68467;50.960;0.314;2023-03-14T01:32:40;97219.85;;;5.65;100.00
64628;BME280;68467;50.960;0.314;2023-03-14T01:35:08;97215.14;;;5.51;100.00
64628;BME280;68467;50.960;0.314;2023-03-14T01:37:35;97215.20;;;5.82;100.00
64628;BME280;68467;50.960;0.314;2023-03-14T01:40:04;97214.17;;;5.81;100.00
64628;BME280;68467;50.960;0.314;2023-03-14T01:42:31;97215.53;;;5.63;100.00
64628;BME280;68467;50.960;0.314;2023-03-14T01:45:01;97219.19;;;6.03;100.00
64628;BME280;68467;50.960;0.314;2023-03-14T01:47:29;97219.96;;;5.72;100.00
64628;BME280;68467;50.960;0.314;2023-03-14T01:49:59;97221.80;;;5.87;100.00
64628;BME280;68467;50.960;0.314;2023-03-14T01:52:32;97213.70;;;5.70;100.00
64628;BME280;68467;50.960;0.314;2023-03-14T01:55:05;97218.30;;;5.43;100.00
64628;BME280;68467;50.960;0.314;2023-03-14T01:57:37;97221.63;;;6.10;100.00
64628;BME280;68467;50.960;0.314;2023-03-14T02:00:10;97231.90;;;5.61;100.00
64628;BME280;68467;50.960;0.314;2023-03-14T02:02:38;97229.39;;;5.30;100.00
64628;BME280;68467;50.960;0.314;2023-03-14T02:05:07;97234.03;;;5.33;100.00
64628;BME280;68467;50.960;0.314;2023-03-14T02:07:39;97233.43;;;5.41;100.00
64628;BME280;68467;50.960;0.314;2023-03-14T02:10:10;97233.67;;;5.87;100.00
64628;BME280;68467;50.960;0.314;2023-03-14T02:12:38;97236.55;;;5.97;100.00
64628;BME280;68467;50.960;0.314;2023-03-14T02:15:07;97241.42;;;5.72;100.00
64628;BME280;68467;50.960;0.314;2023-03-14T02:17:35;97242.66;;;5.74;100.00
64628;BME280;68467;50.960;0.314;2023-03-14T02:20:15;97253.67;;;5.69;100.00
64628;BME280;68467;50.960;0.314;2023-03-14T02:22:47;97286.91;;;5.44;100.00
64628;BME280;68467;50.960;0.314;2023-03-14T02:25:19;97313.46;;;5.25;100.00
64628;BME280;68467;50.960;0.314;2023-03-14T02:27:51;97308.50;;;4.73;100.00
64628;BME280;68467;50.960;0.314;2023-03-14T02:30:22;97320.78;;;4.57;100.00
64628;BME280;68467;50.960;0.314;2023-03-14T02:32:54;97330.75;;;4.66;100.00
64628;BME280;68467;50.960;0.314;2023-03-14T02:35:26;97341.54;;;4.22;100.00
64628;BME280;68467;50.960;0.314;2023-03-14T02:37:57;97348.30;;;4.01;100.00
64628;BME280;68467;50.960;0.314;2023-03-14T02:40:27;97352.90;;;3.85;100.00
64628;BME280;68467;50.960;0.314;2023-03-14T02:42:55;97367.67;;;3.54;100.00
64628;BME280;68467;50.960;0.314;2023-03-14T02:45:34;97375.84;;;3.73;100.00
64628;BME280;68467;50.960;0.314;2023-03-14T02:48:04;97391.36;;;3.33;100.00
64628;BME280;68467;50.960;0.314;2023-03-14T02:50:34;97399.72;;;3.64;100.00
64628;BME280;68467;50.960;0.314;2023-03-14T02:53:02;97411.09;;;3.45;100.00
64628;BME280;68467;50.960;0.314;2023-03-14T02:55:29;97415.03;;;3.36;100.00
64628;BME280;68467;50.960;0.314;2023-03-14T02:57:56;97417.04;;;3.34;100.00
64628;BME280;68467;50.960;0.314;2023-03-14T03:00:23;97425.94;;;3.61;100.00
64628;BME280;68467;50.960;0.314;2023-03-14T03:02:51;97432.26;;;3.55;100.00
64628;BME280;68467;50.960;0.314;2023-03-14T03:05:18;97439.89;;;3.57;100.00
64628;BME280;68467;50.960;0.314;2023-03-14T03:07:45;97446.58;;;3.46;100.00
64628;BME280;68467;50.960;0.314;2023-03-14T03:10:12;97457.10;;;3.38;100.00
64628;BME280;68467;50.960;0.314;2023-03-14T03:12:39;97472.57;;;3.23;100.00
64628;BME280;68467;50.960;0.314;2023-03-14T03:15:07;97484.00;;;3.56;100.00
64628;BME280;68467;50.960;0.314;2023-03-14T03:17:35;97491.20;;;3.84;100.00
64628;BME280;68467;50.960;0.314;2023-03-14T03:20:02;97493.37;;;3.65;100.00
64628;BME280;68467;50.960;0.314;2023-03-14T03:22:30;97495.94;;;3.48;100.00
64628;BME280;68467;50.960;0.314;2023-03-14T03:24:57;97499.40;;;3.46;100.00
64628;BME280;68467;50.960;0.314;2023-03-14T03:27:30;97508.33;;;3.10;100.00
64628;BME280;68467;50.960;0.314;2023-03-14T03:29:58;97509.57;;;2.90;100.00
64628;BME280;68467;50.960;0.314;2023-03-14T03:32:26;97506.09;;;3.17;100.00
64628;BME280;68467;50.960;0.314;2023-03-14T03:34:52;97518.14;;;2.84;100.00
64628;BME280;68467;50.960;0.314;2023-03-14T03:37:20;97526.13;;;2.96;100.00
64628;BME280;68467;50.960;0.314;2023-03-14T03:39:47;97539.28;;;2.56;100.00
64628;BME280;68467;50.960;0.314;2023-03-14T03:42:16;97540.18;;;2.76;100.00
64628;BME280;68467;50.960;0.314;2023-03-14T03:44:43;97557.13;;;3.10;100.00
64628;BME280;68467;50.960;0.314;2023-03-14T03:47:10;97556.11;;;2.92;100.00
64628;BME280;68467;50.960;0.314;2023-03-14T03:49:37;97564.73;;;2.88;100.00
64628;BME280;68467;50.960;0.314;2023-03-14T03:52:04;97569.11;;;2.67;100.00
64628;BME280;68467;50.960;0.314;2023-03-14T03:54:32;97576.57;;;2.18;100.00
64628;BME280;68467;50.960;0.314;2023-03-14T03:56:59;97587.39;;;2.69;100.00
64628;BME280;68467;50.960;0.314;2023-03-14T03:59:27;97597.82;;;2.26;100.00
64628;BME280;68467;50.960;0.314;2023-03-14T04:01:54;97607.31;;;2.51;100.00
64628;BME280;68467;50.960;0.314;2023-03-14T04:04:21;97618.66;;;2.35;100.00
64628;BME280;68467;50.960;0.314;2023-03-14T04:06:48;97631.53;;;2.65;100.00
64628;BME280;68467;50.960;0.314;2023-03-14T04:09:16;97642.54;;;1.98;100.00
64628;BME280;68467;50.960;0.314;2023-03-14T04:11:43;97652.31;;;2.64;100.00
64628;BME280;68467;50.960;0.314;2023-03-14T04:14:10;97656.05;;;2.36;100.00
64628;BME280;68467;50.960;0.314;2023-03-14T04:16:37;97671.72;;;2.68;100.00
64628;BME280;68467;50.960;0.314;2023-03-14T04:19:04;97678.90;;;2.54;100.00
64628;BME280;68467;50.960;0.314;2023-03-14T04:21:32;97691.44;;;2.62;100.00
64628;BME280;68467;50.960;0.314;2023-03-14T04:23:59;97703.92;;;2.32;100.00
64628;BME280;68467;50.960;0.314;2023-03-14T04:26:26;97718.60;;;2.24;100.00
64628;BME280;68467;50.960;0.314;2023-03-14T04:28:53;97724.71;;;2.02;100.00
64628;BME280;68467;50.960;0.314;2023-03-14T04:31:21;97734.78;;;1.87;100.00
64628;BME280;68467;50.960;0.314;2023-03-14T04:33:48;97743.04;;;1.81;100.00
64628;BME280;68467;50.960;0.314;2023-03-14T04:36:16;97744.85;;;1.45;100.00
64628;BME280;68467;50.960;0.314;2023-03-14T04:38:43;97751.29;;;1.74;100.00
64628;BME280;68467;50.960;0.314;2023-03-14T04:41:10;97751.09;;;1.60;100.00
64628;BME280;68467;50.960;0.314;2023-03-14T04:43:37;97766.56;;;1.46;100.00
64628;BME280;68467;50.960;0.314;2023-03-14T04:46:05;97772.96;;;1.57;100.00
64628;BME280;68467;50.960;0.314;2023-03-14T04:48:32;97782.99;;;1.37;100.00
64628;BME280;68467;50.960;0.314;2023-03-14T04:51:00;97790.37;;;1.55;100.00
64628;BME280;68467;50.960;0.314;2023-03-14T04:53:27;97793.65;;;1.37;100.00
64628;BME280;68467;50.960;0.314;2023-03-14T04:55:55;97809.43;;;1.61;100.00
64628;BME280;68467;50.960;0.314;2023-03-14T04:58:23;97810.61;;;1.74;100.00
64628;BME280;68467;50.960;0.314;2023-03-14T05:00:50;97820.91;;;1.21;100.00
64628;BME280;68467;50.960;0.314;2023-03-14T05:03:18;97825.24;;;0.82;100.00
64628;BME280;68467;50.960;0.314;2023-03-14T05:05:46;97842.24;;;0.92;100.00
64628;BME280;68467;50.960;0.314;2023-03-14T05:08:13;97856.46;;;1.11;100.00
64628;BME280;68467;50.960;0.314;2023-03-14T05:10:40;97852.04;;;1.19;100.00
64628;BME280;68467;50.960;0.314;2023-03-14T05:13:07;97847.94;;;1.37;100.00
64628;BME280;68467;50.960;0.314;2023-03-14T05:15:34;97859.82;;;0.97;100.00
64628;BME280;68467;50.960;0.314;2023-03-14T05:18:01;97859.31;;;0.80;100.00
64628;BME280;68467;50.960;0.314;2023-03-14T05:20:30;97861.89;;;0.90;100.00
64628;BME280;68467;50.960;0.314;2023-03-14T05:22:57;97859.92;;;0.78;100.00
64628;BME280;68467;50.960;0.314;2023-03-14T05:25:24;97861.20;;;0.82;100.00
64628;BME280;68467;50.960;0.314;2023-03-14T05:27:54;97865.38;;;0.70;100.00
64628;BME280;68467;50.960;0.314;2023-03-14T05:30:21;97867.26;;;0.79;100.00
64628;BME280;68467;50.960;0.314;2023-03-14T05:32:48;97866.96;;;0.58;100.00
64628;BME280;68467;50.960;0.314;2023-03-14T05:35:16;97862.56;;;0.70;100.00
64628;BME280;68467;50.960;0.314;2023-03-14T05:37:43;97875.03;;;0.66;100.00
64628;BME280;68467;50.960;0.314;2023-03-14T05:40:11;97871.99;;;0.85;100.00
64628;BME280;68467;50.960;0.314;2023-03-14T05:42:38;97877.36;;;0.83;100.00
64628;BME280;68467;50.960;0.314;2023-03-14T05:45:06;97886.63;;;0.80;100.00
64628;BME280;68467;50.960;0.314;2023-03-14T05:47:34;97904.88;;;0.65;100.00
64628;BME280;68467;50.960;0.314;2023-03-14T05:50:01;97912.52;;;0.76;100.00
64628;BME280;68467;50.960;0.314;2023-03-14T05:52:28;97915.73;;;0.56;100.00
64628;BME280;68467;50.960;0.314;2023-03-14T05:54:55;97915.27;;;0.85;100.00
64628;BME280;68467;50.960;0.314;2023-03-14T05:57:23;97937.89;;;0.62;100.00
64628;BME280;68467;50.960;0.314;2023-03-14T05:59:50;97939.98;;;0.79;100.00
64628;BME280;68467;50.960;0.314;2023-03-14T06:02:17;97946.42;;;0.99;100.00
64628;BME280;68467;50.960;0.314;2023-03-14T06:04:44;97958.04;;;1.20;100.00
64628;BME280;68467;50.960;0.314;2023-03-14T06:07:11;97965.17;;;0.91;100.00
64628;BME280;68467;50.960;0.314;2023-03-14T06:09:39;97966.78;;;1.20;100.00
64628;BME280;68467;50.960;0.314;2023-03-14T06:12:06;97976.34;;;0.97;100.00
64628;BME280;68467;50.960;0.314;2023-03-14T06:14:33;97981.14;;;0.70;100.00
64628;BME280;68467;50.960;0.314;2023-03-14T06:17:00;97989.52;;;0.57;100.00
64628;BME280;68467;50.960;0.314;2023-03-14T06:19:28;98008.98;;;0.62;100.00
64628;BME280;68467;50.960;0.314;2023-03-14T06:21:55;98007.32;;;0.88;100.00
64628;BME280;68467;50.960;0.314;2023-03-14T06:24:22;98019.14;;;0.67;100.00
64628;BME280;68467;50.960;0.314;2023-03-14T06:26:49;98030.90;;;0.66;100.00
64628;BME280;68467;50.960;0.314;2023-03-14T06:29:16;98027.84;;;0.79;100.00
64628;BME280;68467;50.960;0.314;2023-03-14T06:31:44;98037.92;;;0.69;100.00
64628;BME280;68467;50.960;0.314;2023-03-14T06:34:11;98046.56;;;0.48;100.00
64628;BME280;68467;50.960;0.314;2023-03-14T06:36:38;98049.69;;;0.72;100.00
64628;BME280;68467;50.960;0.314;2023-03-14T06:39:05;98060.02;;;0.49;100.00
64628;BME280;68467;50.960;0.314;2023-03-14T06:41:32;98060.18;;;0.97;100.00
64628;BME280;68467;50.960;0.314;2023-03-14T06:44:00;98066.91;;;0.48;100.00
64628;BME280;68467;50.960;0.314;2023-03-14T06:46:27;98077.79;;;0.80;100.00
64628;BME280;68467;50.960;0.314;2023-03-14T06:48:54;98085.59;;;0.23;100.00
64628;BME280;68467;50.960;0.314;2023-03-14T06:51:22;98092.06;;;0.79;100.00
64628;BME280;68467;50.960;0.314;2023-03-14T06:53:49;98094.98;;;0.63;100.00
64628;BME280;68467;50.960;0.314;2023-03-14T06:56:16;98099.45;;;0.69;100.00
64628;BME280;68467;50.960;0.314;2023-03-14T06:58:43;98101.80;;;0.89;100.00
64628;BME280;68467;50.960;0.314;2023-03-14T07:01:26;98118.84;;;0.88;100.00
64628;BME280;68467;50.960;0.314;2023-03-14T07:03:53;98130.86;;;0.05;100.00
64628;BME280;68467;50.960;0.314;2023-03-14T07:06:21;98134.72;;;0.48;100.00
64628;BME280;68467;50.960;0.314;2023-03-14T07:08:48;98148.71;;;0.66;100.00
64628;BME280;68467;50.960;0.314;2023-03-14T07:11:15;98150.40;;;0.67;100.00
64628;BME280;68467;50.960;0.314;2023-03-14T07:13:43;98166.04;;;0.81;100.00
64628;BME280;68467;50.960;0.314;2023-03-14T07:16:10;98167.43;;;0.83;100.00
64628;BME280;68467;50.960;0.314;2023-03-14T07:18:37;98180.23;;;0.55;100.00
64628;BME280;68467;50.960;0.314;2023-03-14T07:21:06;98177.96;;;0.69;100.00
64628;BME280;68467;50.960;0.314;2023-03-14T07:23:34;98183.81;;;1.13;100.00
64628;BME280;68467;50.960;0.314;2023-03-14T07:26:02;98185.34;;;0.99;100.00
64628;BME280;68467;50.960;0.314;2023-03-14T07:28:29;98191.04;;;0.88;100.00
64628;BME280;68467;50.960;0.314;2023-03-14T07:30:57;98199.45;;;1.28;100.00
64628;BME280;68467;50.960;0.314;2023-03-14T07:33:24;98208.04;;;1.38;100.00
64628;BME280;68467;50.960;0.314;2023-03-14T07:35:51;98221.55;;;1.63;100.00
64628;BME280;68467;50.960;0.314;2023-03-14T07:38:18;98220.15;;;2.07;100.00
64628;BME280;68467;50.960;0.314;2023-03-14T07:40:45;98222.27;;;1.99;100.00
64628;BME280;68467;50.960;0.314;2023-03-14T07:43:12;98222.05;;;1.73;100.00
64628;BME280;68467;50.960;0.314;2023-03-14T07:45:40;98229.96;;;1.60;100.00
64628;BME280;68467;50.960;0.314;2023-03-14T07:48:07;98242.78;;;1.64;100.00
64628;BME280;68467;50.960;0.314;2023-03-14T07:50:35;98244.46;;;1.74;100.00
64628;BME280;68467;50.960;0.314;2023-03-14T07:53:02;98248.38;;;1.82;100.00
64628;BME280;68467;50.960;0.314;2023-03-14T07:55:29;98250.37;;;1.81;100.00
64628;BME280;68467;50.960;0.314;2023-03-14T07:57:56;98256.79;;;1.45;100.00
64628;BME280;68467;50.960;0.314;2023-03-14T08:00:24;98259.94;;;2.33;100.00
64628;BME280;68467;50.960;0.314;2023-03-14T08:02:51;98268.99;;;2.18;100.00
64628;BME280;68467;50.960;0.314;2023-03-14T08:05:19;98282.84;;;1.80;100.00
64628;BME280;68467;50.960;0.314;2023-03-14T08:07:46;98291.92;;;1.71;100.00
64628;BME280;68467;50.960;0.314;2023-03-14T08:10:14;98299.25;;;2.32;100.00
64628;BME280;68467;50.960;0.314;2023-03-14T08:12:41;98297.05;;;2.06;100.00
64628;BME280;68467;50.960;0.314;2023-03-14T08:15:18;98302.44;;;2.04;100.00
64628;BME280;68467;50.960;0.314;2023-03-14T08:17:45;98306.02;;;2.11;100.00
64628;BME280;68467;50.960;0.314;2023-03-14T08:20:12;98313.78;;;2.39;100.00
64628;BME280;68467;50.960;0.314;2023-03-14T08:22:39;98326.17;;;2.18;100.00
64628;BME280;68467;50.960;0.314;2023-03-14T08:25:07;98338.20;;;2.23;100.00
64628;BME280;68467;50.960;0.314;2023-03-14T08:27:35;98346.69;;;2.06;100.00
64628;BME280;68467;50.960;0.314;2023-03-14T08:30:02;98352.77;;;2.36;100.00
64628;BME280;68467;50.960;0.314;2023-03-14T08:32:30;98359.48;;;1.92;100.00
64628;BME280;68467;50.960;0.314;2023-03-14T08:34:58;98376.86;;;2.06;100.00
64628;BME280;68467;50.960;0.314;2023-03-14T08:37:25;98384.44;;;2.20;100.00
64628;BME280;68467;50.960;0.314;2023-03-14T08:39:53;98387.03;;;2.31;100.00
64628;BME280;68467;50.960;0.314;2023-03-14T08:42:20;98395.66;;;2.26;100.00
64628;BME280;68467;50.960;0.314;2023-03-14T08:44:48;98390.05;;;2.07;100.00
64628;BME280;68467;50.960;0.314;2023-03-14T08:47:15;98401.64;;;2.16;100.00
64628;BME280;68467;50.960;0.314;2023-03-14T08:49:42;98408.09;;;1.93;100.00
64628;BME280;68467;50.960;0.314;2023-03-14T08:52:09;98417.91;;;2.16;100.00
64628;BME280;68467;50.960;0.314;2023-03-14T08:54:36;98421.34;;;2.31;100.00
64628;BME280;68467;50.960;0.314;2023-03-14T08:57:03;98423.91;;;2.38;100.00
64628;BME280;68467;50.960;0.314;2023-03-14T08:59:31;98428.35;;;2.27;100.00
64628;BME280;68467;50.960;0.314;2023-03-14T09:01:58;98439.43;;;2.07;100.00
64628;BME280;68467;50.960;0.314;2023-03-14T09:04:25;98448.95;;;1.86;100.00
64628;BME280;68467;50.960;0.314;2023-03-14T09:06:52;98463.12;;;2.04;100.00
64628;BME280;68467;50.960;0.314;2023-03-14T09:09:20;98468.70;;;1.83;100.00
64628;BME280;68467;50.960;0.314;2023-03-14T09:11:47;98476.15;;;1.98;100.00
64628;BME280;68467;50.960;0.314;2023-03-14T09:14:14;98485.29;;;1.90;100.00
64628;BME280;68467;50.960;0.314;2023-03-14T09:16:41;98488.95;;;1.90;100.00
64628;BME280;68467;50.960;0.314;2023-03-14T09:19:09;98507.80;;;2.19;100.00
64628;BME280;68467;50.960;0.314;2023-03-14T09:21:36;98508.95;;;2.31;100.00
64628;BME280;68467;50.960;0.314;2023-03-14T09:24:03;98520.47;;;2.26;100.00
64628;BME280;68467;50.960;0.314;2023-03-14T09:26:30;98526.30;;;2.41;100.00
64628;BME280;68467;50.960;0.314;2023-03-14T09:28:57;98536.80;;;2.51;100.00
64628;BME280;68467;50.960;0.314;2023-03-14T09:31:24;98540.49;;;2.57;100.00
64628;BME280;68467;50.960;0.314;2023-03-14T09:33:52;98555.11;;;3.14;100.00
64628;BME280;68467;50.960;0.314;2023-03-14T09:36:19;98559.42;;;2.53;100.00
64628;BME280;68467;50.960;0.314;2023-03-14T09:38:46;98574.66;;;2.96;100.00
64628;BME280;68467;50.960;0.314;2023-03-14T09:41:16;98583.53;;;3.17;100.00
64628;BME280;68467;50.960;0.314;2023-03-14T09:43:45;98586.78;;;3.24;100.00
64628;BME280;68467;50.960;0.314;2023-03-14T09:46:14;98594.39;;;3.40;100.00
64628;BME280;68467;50.960;0.314;2023-03-14T09:48:43;98599.34;;;3.64;100.00
64628;BME280;68467;50.960;0.314;2023-03-14T09:51:14;98605.40;;;3.63;100.00
64628;BME280;68467;50.960;0.314;2023-03-14T09:53:43;98611.23;;;3.63;100.00
64628;BME280;68467;50.960;0.314;2023-03-14T09:56:13;98615.82;;;4.12;100.00
64628;BME280;68467;50.960;0.314;2023-03-14T09:58:47;98619.24;;;3.80;100.00
64628;BME280;68467;50.960;0.314;2023-03-14T10:01:18;98635.14;;;3.21;100.00
64628;BME280;68467;50.960;0.314;2023-03-14T10:03:47;98643.21;;;3.31;100.00
64628;BME280;68467;50.960;0.314;2023-03-14T10:06:15;98652.59;;;3.78;100.00
64628;BME280;68467;50.960;0.314;2023-03-14T10:08:44;98660.39;;;3.65;100.00
64628;BME280;68467;50.960;0.314;2023-03-14T10:11:15;98671.95;;;3.80;100.00
64628;BME280;68467;50.960;0.314;2023-03-14T10:14:04;98681.66;;;3.70;100.00
64628;BME280;68467;50.960;0.314;2023-03-14T10:16:34;98689.17;;;3.92;100.00
64628;BME280;68467;50.960;0.314;2023-03-14T10:19:04;98688.65;;;3.77;100.00
64628;BME280;68467;50.960;0.314;2023-03-14T10:21:37;98696.28;;;3.30;100.00
64628;BME280;68467;50.960;0.314;2023-03-14T10:24:09;98712.06;;;3.67;100.00
64628;BME280;68467;50.960;0.314;2023-03-14T10:26:37;98717.59;;;3.51;100.00
64628;BME280;68467;50.960;0.314;2023-03-14T10:29:11;98728.67;;;3.31;100.00
64628;BME280;68467;50.960;0.314;2023-03-14T10:31:49;98742.13;;;2.97;100.00
64628;BME280;68467;50.960;0.314;2023-03-14T10:34:22;98751.34;;;3.49;100.00
64628;BME280;68467;50.960;0.314;2023-03-14T10:36:56;98768.83;;;4.38;100.00
64628;BME280;68467;50.960;0.314;2023-03-14T10:39:40;98770.99;;;4.06;100.00
64628;BME280;68467;50.960;0.314;2023-03-14T10:42:16;98774.47;;;3.87;100.00
64628;BME280;68467;50.960;0.314;2023-03-14T10:44:43;98779.63;;;4.15;100.00
64628;BME280;68467;50.960;0.314;2023-03-14T10:47:18;98788.13;;;4.48;100.00
64628;BME280;68467;50.960;0.314;2023-03-14T10:49:47;98797.22;;;4.49;100.00
64628;BME280;68467;50.960;0.314;2023-03-14T10:52:18;98803.67;;;4.43;100.00
64628;BME280;68467;50.960;0.314;2023-03-14T10:54:47;98815.39;;;4.73;100.00
64628;BME280;68467;50.960;0.314;2023-03-14T10:57:15;98824.22;;;3.98;100.00
64628;BME280;68467;50.960;0.314;2023-03-14T10:59:43;98833.09;;;4.32;100.00
64628;BME280;68467;50.960;0.314;2023-03-14T11:02:27;98842.69;;;3.96;100.00
64628;BME280;68467;50.960;0.314;2023-03-14T11:05:06;98850.63;;;3.15;100.00
64628;BME280;68467;50.960;0.314;2023-03-14T11:07:39;98854.84;;;2.84;100.00
64628;BME280;68467;50.960;0.314;2023-03-14T11:10:15;98864.79;;;3.13;100.00
64628;BME280;68467;50.960;0.314;2023-03-14T11:12:53;98873.30;;;3.71;100.00
64628;BME280;68467;50.960;0.314;2023-03-14T11:15:29;98879.23;;;3.26;100.00
64628;BME280;68467;50.960;0.314;2023-03-14T11:18:16;98888.05;;;3.65;100.00
64628;BME280;68467;50.960;0.314;2023-03-14T11:20:52;98897.32;;;3.73;100.00
64628;BME280;68467;50.960;0.314;2023-03-14T11:23:22;98896.19;;;3.57;100.00
64628;BME280;68467;50.960;0.314;2023-03-14T11:25:56;98900.45;;;4.34;100.00
64628;BME280;68467;50.960;0.314;2023-03-14T11:28:33;98910.98;;;4.75;100.00
64628;BME280;68467;50.960;0.314;2023-03-14T11:31:09;98908.06;;;3.99;100.00
64628;BME280;68467;50.960;0.314;2023-03-14T11:33:47;98915.02;;;3.88;100.00
64628;BME280;68467;50.960;0.314;2023-03-14T11:36:21;98923.21;;;4.42;100.00
64628;BME280;68467;50.960;0.314;2023-03-14T11:38:50;98921.95;;;4.97;100.00
64628;BME280;68467;50.960;0.314;2023-03-14T11:41:22;98918.66;;;5.72;100.00
64628;BME280;68467;50.960;0.314;2023-03-14T11:43:54;98921.16;;;4.77;100.00
64628;BME280;68467;50.960;0.314;2023-03-14T11:46:25;98929.49;;;5.94;100.00
64628;BME280;68467;50.960;0.314;2023-03-14T11:48:59;98934.79;;;5.53;100.00
64628;BME280;68467;50.960;0.314;2023-03-14T11:51:33;98940.12;;;6.21;100.00
64628;BME280;68467;50.960;0.314;2023-03-14T11:54:08;98940.73;;;5.98;100.00
64628;BME280;68467;50.960;0.314;2023-03-14T11:56:46;98942.39;;;6.31;100.00
64628;BME280;68467;50.960;0.314;2023-03-14T11:59:18;98947.97;;;6.96;100.00
64628;BME280;68467;50.960;0.314;2023-03-14T12:01:53;98955.55;;;6.70;100.00
64628;BME280;68467;50.960;0.314;2023-03-14T12:04:31;98964.80;;;6.89;100.00
64628;BME280;68467;50.960;0.314;2023-03-14T12:07:05;98967.26;;;7.43;100.00
64628;BME280;68467;50.960;0.314;2023-03-14T12:09:35;98971.42;;;7.00;100.00
64628;BME280;68467;50.960;0.314;2023-03-14T12:12:04;98974.40;;;6.30;100.00
64628;BME280;68467;50.960;0.314;2023-03-14T12:14:34;98979.05;;;6.48;100.00
64628;BME280;68467;50.960;0.314;2023-03-14T12:17:05;98980.03;;;6.35;100.00
64628;BME280;68467;50.960;0.314;2023-03-14T12:19:36;98989.55;;;6.99;100.00
64628;BME280;68467;50.960;0.314;2023-03-14T12:22:18;98987.76;;;7.01;100.00
64628;BME280;68467;50.960;0.314;2023-03-14T12:24:51;98988.81;;;7.14;100.00
64628;BME280;68467;50.960;0.314;2023-03-14T12:28:31;98990.68;;;7.99;100.00
64628;BME280;68467;50.960;0.314;2023-03-14T12:31:36;98996.49;;;7.22;100.00
64628;BME280;68467;50.960;0.314;2023-03-14T12:34:04;98997.67;;;7.23;100.00
64628;BME280;68467;50.960;0.314;2023-03-14T12:36:56;99002.93;;;7.00;100.00
64628;BME280;68467;50.960;0.314;2023-03-14T12:39:33;99008.08;;;7.28;100.00
64628;BME280;68467;50.960;0.314;2023-03-14T12:42:09;99014.47;;;6.76;100.00
64628;BME280;68467;50.960;0.314;2023-03-14T12:44:43;99016.84;;;6.30;100.00
64628;BME280;68467;50.960;0.314;2023-03-14T12:48:18;99029.41;;;5.94;100.00
64628;BME280;68467;50.960;0.314;2023-03-14T12:50:55;99028.16;;;6.75;100.00
64628;BME280;68467;50.960;0.314;2023-03-14T12:54:05;99034.06;;;8.03;100.00
64628;BME280;68467;50.960;0.314;2023-03-14T12:56:45;99034.76;;;7.34;100.00
64628;BME280;68467;50.960;0.314;2023-03-14T12:59:30;99039.95;;;7.94;100.00
64628;BME280;68467;50.960;0.314;2023-03-14T13:02:01;99041.88;;;7.95;100.00
64628;BME280;68467;50.960;0.314;2023-03-14T13:04:33;99047.96;;;7.94;100.00
64628;BME280;68467;50.960;0.314;2023-03-14T13:07:01;99050.36;;;7.73;100.00
64628;BME280;68467;50.960;0.314;2023-03-14T13:09:53;99061.06;;;7.60;100.00
64628;BME280;68467;50.960;0.314;2023-03-14T13:12:27;99070.40;;;7.63;100.00
64628;BME280;68467;50.960;0.314;2023-03-14T13:14:58;99073.12;;;8.43;100.00